createdAt,value
2018-11-11T13:33:10.415Z,975.41
2018-11-11T13:34:10.352Z,975.44
2018-11-11T13:35:10.307Z,975.43
2018-11-11T13:36:10.275Z,975.49
2018-11-11T13:37:10.238Z,975.51
2018-11-11T13:38:10.204Z,975.55
2018-11-11T13:39:10.161Z,975.58
2018-11-11T13:40:10.121Z,975.51
2018-11-11T13:41:10.081Z,975.61
2018-11-11T13:42:10.041Z,975.58
2018-11-11T13:43:10.063Z,975.53
2018-11-11T13:44:09.966Z,975.52
2018-11-11T13:45:09.932Z,975.54
2018-11-11T13:46:09.947Z,975.51
2018-11-11T13:47:09.857Z,975.55
2018-11-11T13:48:09.819Z,975.58
2018-11-11T13:49:09.778Z,975.44
2018-11-11T13:50:09.796Z,975.51
2018-11-11T13:51:09.707Z,975.51
2018-11-11T13:52:09.671Z,975.56
2018-11-11T13:53:09.629Z,975.48
2018-11-11T13:54:09.590Z,975.54
2018-11-11T13:55:09.550Z,975.53
2018-11-11T13:56:09.515Z,975.48
2018-11-11T13:57:09.480Z,975.54
2018-11-11T13:58:09.443Z,975.54
2018-11-11T13:59:09.405Z,975.65
2018-11-11T14:00:09.367Z,975.63
2018-11-11T14:01:09.326Z,975.66
2018-11-11T14:02:09.287Z,975.68
2018-11-11T14:03:09.249Z,975.71
2018-11-11T14:04:09.212Z,975.75
2018-11-11T14:05:09.178Z,975.73
2018-11-11T14:06:09.141Z,975.78
2018-11-11T14:07:09.098Z,975.78
2018-11-11T14:08:09.091Z,975.78
2018-11-11T14:09:09.029Z,975.82
2018-11-11T14:10:08.991Z,975.77
2018-11-11T14:11:09.068Z,975.77
2018-11-11T14:12:08.914Z,975.75
2018-11-11T14:13:08.877Z,975.73
2018-11-11T14:14:08.835Z,975.69
2018-11-11T14:15:08.797Z,975.70
2018-11-11T14:16:08.763Z,975.75
2018-11-11T14:17:08.727Z,975.70
2018-11-11T14:18:08.720Z,975.72
2018-11-11T14:19:08.886Z,975.69
2018-11-11T14:20:08.614Z,975.68
2018-11-11T14:21:08.576Z,975.66
2018-11-11T14:22:08.537Z,975.63
2018-11-11T14:23:08.505Z,975.63
2018-11-11T14:24:08.463Z,975.62
2018-11-11T14:25:08.489Z,975.60
2018-11-11T14:26:08.413Z,975.61
2018-11-11T14:27:08.367Z,975.62
2018-11-11T14:28:08.311Z,975.60
2018-11-11T14:29:08.276Z,975.63
2018-11-11T14:30:08.239Z,975.67
2018-11-11T14:31:08.202Z,975.69
2018-11-11T14:32:08.223Z,975.69
2018-11-11T14:33:08.126Z,975.71
2018-11-11T14:34:08.091Z,975.67
2018-11-11T14:35:08.046Z,975.66
2018-11-11T14:36:08.011Z,975.68
2018-11-11T14:37:07.975Z,975.67
2018-11-11T14:38:07.943Z,975.66
2018-11-11T14:39:07.896Z,975.69
2018-11-11T14:40:07.861Z,975.73
2018-11-11T14:41:07.825Z,975.75
2018-11-11T14:42:07.788Z,975.70
2018-11-11T14:43:07.751Z,975.74
2018-11-11T14:44:07.711Z,975.73
2018-11-11T14:45:07.672Z,975.72
2018-11-11T14:46:07.690Z,975.68
2018-11-11T14:47:07.596Z,975.61
2018-11-11T14:48:07.556Z,975.53
2018-11-11T14:49:07.534Z,975.58
2018-11-11T14:50:07.527Z,975.59
2018-11-11T14:51:07.446Z,975.55
2018-11-11T14:52:07.501Z,975.54
2018-11-11T14:53:07.370Z,975.59
2018-11-11T14:54:07.333Z,975.63
2018-11-11T14:55:07.299Z,975.61
2018-11-11T14:56:07.261Z,975.64
2018-11-11T14:57:07.217Z,975.66
2018-11-11T14:58:07.270Z,975.72
2018-11-11T14:59:07.143Z,975.66
2018-11-11T15:00:07.105Z,975.64
2018-11-11T15:01:07.073Z,975.64
2018-11-11T15:02:07.032Z,975.70
2018-11-11T15:03:06.996Z,975.56
2018-11-11T15:04:07.009Z,975.49
2018-11-11T15:05:06.915Z,975.46
2018-11-11T15:06:06.878Z,975.48
2018-11-11T15:07:06.841Z,975.41
2018-11-11T15:08:06.811Z,975.43
2018-11-11T15:09:06.770Z,975.47
2018-11-11T15:10:06.729Z,975.52
2018-11-11T15:11:06.691Z,975.55
2018-11-11T15:12:06.650Z,975.64
2018-11-11T15:13:06.667Z,975.68
2018-11-11T15:14:06.578Z,975.69
2018-11-11T15:15:06.540Z,975.78
2018-11-11T15:16:06.505Z,975.76
2018-11-11T15:17:06.461Z,975.70
2018-11-11T15:18:06.425Z,975.65
2018-11-11T15:19:06.442Z,975.72
2018-11-11T15:20:06.442Z,975.66
2018-11-11T15:21:06.399Z,975.69
2018-11-11T15:22:06.275Z,975.64
2018-11-11T15:23:06.239Z,975.65
2018-11-11T15:24:06.203Z,975.71
2018-11-11T15:25:06.188Z,975.66
2018-11-11T15:26:06.126Z,975.67
2018-11-11T15:27:06.085Z,975.75
2018-11-11T15:28:06.050Z,975.76
2018-11-11T15:29:06.008Z,975.80
2018-11-11T15:30:05.972Z,975.90
2018-11-11T15:31:06.111Z,976.05
2018-11-11T15:32:05.892Z,976.10
2018-11-11T15:33:05.860Z,976.20
2018-11-11T15:34:05.820Z,976.30
2018-11-11T15:35:05.782Z,976.27
2018-11-11T15:36:05.746Z,976.29
2018-11-11T15:37:05.703Z,976.28
2018-11-11T15:38:05.668Z,976.21
2018-11-11T15:39:05.628Z,976.28
2018-11-11T15:40:05.589Z,976.23
2018-11-11T15:41:05.572Z,976.15
2018-11-11T15:42:05.518Z,976.11
2018-11-11T15:43:05.481Z,976.09
2018-11-11T15:44:05.437Z,976.10
2018-11-11T15:45:05.407Z,976.08
2018-11-11T15:46:05.365Z,976.07
2018-11-11T15:47:05.327Z,976.08
2018-11-11T15:48:05.292Z,976.08
2018-11-11T15:49:05.248Z,976.07
2018-11-11T15:50:05.214Z,976.00
2018-11-11T15:51:05.173Z,976.04
2018-11-11T15:52:05.200Z,976.04
2018-11-11T16:04:00.668Z,975.89
2018-11-11T16:05:00.597Z,975.90
2018-11-11T16:06:00.558Z,975.90
2018-11-11T16:07:00.511Z,975.90
2018-11-11T16:08:00.475Z,975.84
2018-11-11T16:09:00.432Z,975.84
2018-11-11T16:10:00.389Z,975.81
2018-11-11T16:11:00.347Z,975.86
2018-11-11T16:12:00.307Z,975.83
2018-11-11T16:13:00.268Z,975.80
2018-11-11T16:14:00.279Z,975.87
2018-11-11T16:15:00.194Z,975.90
2018-11-11T16:16:00.156Z,975.92
2018-11-11T16:17:00.114Z,975.92
2018-11-11T16:18:00.072Z,975.90
2018-11-11T16:19:00.031Z,975.92
2018-11-11T16:20:00.133Z,975.90
2018-11-11T16:20:59.956Z,975.91
2018-11-11T16:21:59.921Z,975.82
2018-11-11T16:22:59.887Z,975.78
2018-11-11T16:23:59.836Z,975.80
2018-11-11T16:24:59.800Z,975.89
2018-11-11T16:25:59.763Z,975.90
2018-11-11T16:26:59.728Z,975.91
2018-11-11T16:27:59.687Z,975.98
2018-11-11T16:28:59.647Z,975.99
2018-11-11T16:29:59.607Z,976.03
2018-11-11T16:30:59.568Z,975.95
2018-11-11T16:31:59.527Z,976.05
2018-11-11T16:32:59.498Z,976.05
2018-11-11T16:33:59.455Z,976.03
2018-11-11T16:34:59.419Z,975.99
2018-11-11T16:35:59.414Z,976.10
2018-11-11T16:36:59.396Z,976.02
2018-11-11T16:37:59.299Z,976.08
2018-11-11T16:38:59.260Z,976.06
2018-11-11T16:39:59.227Z,976.10
2018-11-11T16:40:59.240Z,976.16
2018-11-11T16:41:59.154Z,976.19
2018-11-11T16:42:59.106Z,976.24
2018-11-11T16:43:59.107Z,976.22
2018-11-11T16:44:59.082Z,976.30
2018-11-11T16:45:58.995Z,976.18
2018-11-11T16:46:58.958Z,976.23
2018-11-11T16:47:58.988Z,976.21
2018-11-11T16:48:58.881Z,976.38
2018-11-11T16:49:58.840Z,976.41
2018-11-11T16:50:58.800Z,976.45
2018-11-11T16:51:58.762Z,976.52
2018-11-11T16:52:58.742Z,976.49
2018-11-11T16:53:58.727Z,976.43
2018-11-11T16:54:58.653Z,976.49
2018-11-11T16:55:58.609Z,976.55
2018-11-11T16:56:58.572Z,976.51
2018-11-11T16:57:58.535Z,976.50
2018-11-11T16:58:58.501Z,976.58
2018-11-11T16:59:58.460Z,976.51
2018-11-11T17:00:58.420Z,976.57
2018-11-11T17:01:58.380Z,976.59
2018-11-11T17:02:58.340Z,976.58
2018-11-11T17:03:58.302Z,976.58
2018-11-11T17:04:58.265Z,976.65
2018-11-11T17:05:58.230Z,976.60
2018-11-11T17:06:58.194Z,976.62
2018-11-11T17:07:58.155Z,976.47
2018-11-11T17:08:58.117Z,976.49
2018-11-11T17:09:58.075Z,976.50
2018-11-11T17:10:58.035Z,976.54
2018-11-11T17:11:58.002Z,976.55
2018-11-11T17:12:57.962Z,976.61
2018-11-11T17:13:57.927Z,976.68
2018-11-11T17:14:57.886Z,976.67
2018-11-11T17:15:57.844Z,976.73
2018-11-11T17:16:57.808Z,976.70
2018-11-11T17:17:57.774Z,976.64
2018-11-11T17:18:57.735Z,976.60
2018-11-11T17:19:57.758Z,976.66
2018-11-11T17:20:57.715Z,976.66
2018-11-11T17:21:57.863Z,976.74
2018-11-11T17:22:57.640Z,976.81
2018-11-11T17:23:57.538Z,976.78
2018-11-11T17:24:57.503Z,976.78
2018-11-11T17:25:57.468Z,976.81
2018-11-11T17:26:57.432Z,976.90
2018-11-11T17:27:57.414Z,976.94
2018-11-11T17:28:57.394Z,976.91
2018-11-11T17:29:57.351Z,976.89
2018-11-11T17:30:57.279Z,976.93
2018-11-11T17:31:57.239Z,976.92
2018-11-11T17:32:57.270Z,977.02
2018-11-11T17:33:57.160Z,976.90
2018-11-11T17:34:57.119Z,976.98
2018-11-11T17:35:57.116Z,976.94
2018-11-11T17:36:57.044Z,976.91
2018-11-11T17:37:57.007Z,976.85
2018-11-11T17:38:57.007Z,976.90
2018-11-11T17:39:56.934Z,976.86
2018-11-11T17:40:56.892Z,976.91
2018-11-11T17:41:56.853Z,976.91
2018-11-11T17:42:56.817Z,976.82
2018-11-11T17:43:56.780Z,976.79
2018-11-11T17:44:56.740Z,976.81
2018-11-11T17:45:56.700Z,976.86
2018-11-11T17:46:56.662Z,976.92
2018-11-11T17:47:56.621Z,976.94
2018-11-11T17:48:56.604Z,976.95
2018-11-11T17:49:56.551Z,977.03
2018-11-11T17:50:56.515Z,977.03
2018-11-11T17:51:56.474Z,976.99
2018-11-11T17:52:56.434Z,977.07
2018-11-11T17:53:56.394Z,977.08
2018-11-11T17:54:56.356Z,977.09
2018-11-11T17:55:56.319Z,977.10
2018-11-11T17:56:56.278Z,977.03
2018-11-11T17:57:56.243Z,977.03
2018-11-11T17:58:56.207Z,976.97
2018-11-11T17:59:56.163Z,976.90
2018-11-11T18:00:56.145Z,976.86
2018-11-11T18:01:56.089Z,976.85
2018-11-11T18:02:56.055Z,976.89
2018-11-11T18:03:56.015Z,976.92
2018-11-11T18:04:55.976Z,976.92
2018-11-11T18:05:55.936Z,976.94
2018-11-11T18:06:55.894Z,976.96
2018-11-11T18:07:55.856Z,976.97
2018-11-11T18:08:55.820Z,976.98
2018-11-11T18:09:55.786Z,976.98
2018-11-11T18:10:55.750Z,976.94
2018-11-11T18:11:55.708Z,976.90
2018-11-11T18:12:55.667Z,976.90
2018-11-11T18:13:55.640Z,976.97
2018-11-11T18:14:55.588Z,976.92
2018-11-11T18:15:55.555Z,976.97
2018-11-11T18:16:55.543Z,976.98
2018-11-11T18:17:55.475Z,977.02
2018-11-11T18:18:55.436Z,977.10
2018-11-11T18:19:55.416Z,977.05
2018-11-11T18:20:55.362Z,977.07
2018-11-11T18:21:55.332Z,977.06
2018-11-11T18:22:55.287Z,977.15
2018-11-11T18:23:55.248Z,977.10
2018-11-11T18:24:55.208Z,977.00
2018-11-11T18:25:55.167Z,977.01
2018-11-11T18:26:55.178Z,977.05
2018-11-11T18:27:55.168Z,977.05
2018-11-11T18:28:55.052Z,977.05
2018-11-11T18:29:55.016Z,977.02
2018-11-11T18:30:54.979Z,977.13
2018-11-11T18:31:54.934Z,977.07
2018-11-11T18:32:54.897Z,977.07
2018-11-11T18:33:54.862Z,976.99
2018-11-11T18:34:54.826Z,976.99
2018-11-11T18:35:54.801Z,976.96
2018-11-11T18:36:54.746Z,976.99
2018-11-11T18:37:54.707Z,976.95
2018-11-11T18:38:54.676Z,976.94
2018-11-11T18:39:54.662Z,976.98
2018-11-11T18:40:54.593Z,976.98
2018-11-11T18:41:54.562Z,977.01
2018-11-11T18:42:54.518Z,977.06
2018-11-11T18:43:54.480Z,977.05
2018-11-11T18:44:54.439Z,977.06
2018-11-11T18:45:54.399Z,977.05
2018-11-11T18:46:54.357Z,977.14
2018-11-11T18:47:54.333Z,977.20
2018-11-11T18:48:54.284Z,977.25
2018-11-11T18:49:54.245Z,977.18
2018-11-11T18:50:54.207Z,977.19
2018-11-11T18:51:54.165Z,977.19
2018-11-11T18:52:54.128Z,977.18
2018-11-11T18:53:54.168Z,977.18
2018-11-11T18:54:54.059Z,977.25
2018-11-11T18:55:54.015Z,977.27
2018-11-11T18:56:53.994Z,977.27
2018-11-11T18:57:53.971Z,977.31
2018-11-11T18:58:53.902Z,977.34
2018-11-11T18:59:53.859Z,977.42
2018-11-11T19:00:53.818Z,977.31
2018-11-11T19:01:53.787Z,977.35
2018-11-11T19:02:53.746Z,977.35
2018-11-11T19:03:53.707Z,977.40
2018-11-11T19:04:53.665Z,977.42
2018-11-11T19:05:53.633Z,977.56
2018-11-11T19:06:53.595Z,977.56
2018-11-11T19:07:53.553Z,977.59
2018-11-11T19:08:53.519Z,977.57
2018-11-11T19:09:53.481Z,977.54
2018-11-11T19:10:53.621Z,977.48
2018-11-11T19:11:53.397Z,977.49
2018-11-11T19:12:53.374Z,977.42
2018-11-11T19:13:53.326Z,977.45
2018-11-11T19:14:53.284Z,977.40
2018-11-11T19:15:53.245Z,977.45
2018-11-11T19:16:53.222Z,977.45
2018-11-11T19:17:53.173Z,977.56
2018-11-11T19:18:53.272Z,977.58
2018-11-11T19:19:53.096Z,977.54
2018-11-11T19:20:53.057Z,977.55
2018-11-11T19:21:53.014Z,977.55
2018-11-11T19:22:52.974Z,977.61
2018-11-11T19:23:52.983Z,977.59
2018-11-11T19:24:52.992Z,977.58
2018-11-11T19:25:52.864Z,977.62
2018-11-11T19:26:52.825Z,977.61
2018-11-11T19:27:52.784Z,977.62
2018-11-11T19:28:52.746Z,977.67
2018-11-11T19:29:52.708Z,977.67
2018-11-11T19:30:52.667Z,977.66
2018-11-11T19:31:52.628Z,977.75
2018-11-11T19:32:52.609Z,977.76
2018-11-11T19:33:53.282Z,977.81
2018-11-11T19:34:53.385Z,977.79
2018-11-11T19:35:59.608Z,977.72
2018-11-11T19:36:55.351Z,977.68
2018-11-11T19:37:52.401Z,977.65
2018-11-11T19:38:52.541Z,977.61
2018-11-11T19:39:54.045Z,977.53
2018-11-11T19:40:52.580Z,977.52
2018-11-11T19:41:52.375Z,977.46
2018-11-11T19:46:21.001Z,977.59
2018-11-11T19:47:18.349Z,977.68
2018-11-11T19:48:18.318Z,977.67
2018-11-11T19:49:18.273Z,977.66
2018-11-11T19:50:18.228Z,977.61
2018-11-11T19:51:18.191Z,977.57
2018-11-11T19:52:18.155Z,977.55
2018-11-11T19:53:18.114Z,977.64
2018-11-11T19:54:18.080Z,977.67
2018-11-11T19:55:18.040Z,977.65
2018-11-11T19:56:18.001Z,977.74
2018-11-11T19:57:17.961Z,977.82
2018-11-11T19:58:17.928Z,977.86
2018-11-11T19:59:17.887Z,977.89
2018-11-11T20:00:17.851Z,977.91
2018-11-11T20:01:17.814Z,977.93
2018-11-11T20:02:17.768Z,977.99
2018-11-11T20:03:17.745Z,978.05
2018-11-11T20:04:17.693Z,978.05
2018-11-11T20:05:17.656Z,978.10
2018-11-11T20:06:17.619Z,978.07
2018-11-11T20:07:17.583Z,978.04
2018-11-11T20:08:17.545Z,978.01
2018-11-11T20:09:17.509Z,977.95
2018-11-11T20:10:17.465Z,977.94
2018-11-11T20:11:17.449Z,977.93
2018-11-11T20:12:17.391Z,977.88
2018-11-11T20:13:17.351Z,978.02
2018-11-11T20:14:17.310Z,978.03
2018-11-11T20:15:17.269Z,978.05
2018-11-11T20:16:17.232Z,978.07
2018-11-11T20:17:17.196Z,978.02
2018-11-11T20:18:17.157Z,978.03
2018-11-11T20:19:17.122Z,978.01
2018-11-11T20:20:17.083Z,978.01
2018-11-11T20:21:17.044Z,977.98
2018-11-11T20:22:17.002Z,978.01
2018-11-11T20:23:16.964Z,978.02
2018-11-11T20:24:17.000Z,978.02
2018-11-11T20:25:16.886Z,977.99
2018-11-11T20:26:16.854Z,977.99
2018-11-11T20:27:16.814Z,978.05
2018-11-11T20:28:16.792Z,978.05
2018-11-11T20:29:16.737Z,978.12
2018-11-11T20:30:16.696Z,978.10
2018-11-11T20:31:16.710Z,978.13
2018-11-11T20:32:16.621Z,978.11
2018-11-11T20:33:16.581Z,978.16
2018-11-11T20:34:16.540Z,978.24
2018-11-11T20:35:16.558Z,978.32
2018-11-11T20:36:16.462Z,978.39
2018-11-11T20:37:16.484Z,978.43
2018-11-11T20:38:16.388Z,978.43
2018-11-11T20:39:16.352Z,978.39
2018-11-11T20:40:16.314Z,978.35
2018-11-11T20:41:16.280Z,978.43
2018-11-11T20:42:16.232Z,978.47
2018-11-11T20:43:16.265Z,978.45
2018-11-11T20:44:16.160Z,978.48
2018-11-11T20:45:16.122Z,978.52
2018-11-11T20:46:16.080Z,978.57
2018-11-11T20:47:16.038Z,978.58
2018-11-11T20:48:16.001Z,978.57
2018-11-11T20:49:15.963Z,978.58
2018-11-11T20:50:15.932Z,978.55
2018-11-11T20:51:15.890Z,978.52
2018-11-11T20:52:15.852Z,978.51
2018-11-11T20:53:15.815Z,978.58
2018-11-11T20:54:15.771Z,978.58
2018-11-11T20:55:15.732Z,978.55
2018-11-11T20:56:15.708Z,978.55
2018-11-11T20:57:15.660Z,978.61
2018-11-11T20:58:15.619Z,978.59
2018-11-11T20:59:15.583Z,978.57
2018-11-11T21:00:15.540Z,978.64
2018-11-11T21:01:15.502Z,978.66
2018-11-11T21:02:15.473Z,978.67
2018-11-11T21:03:15.429Z,978.66
2018-11-11T21:04:15.393Z,978.69
2018-11-11T21:05:15.352Z,978.68
2018-11-11T21:06:15.311Z,978.61
2018-11-11T21:07:15.287Z,978.63
2018-11-11T21:08:15.232Z,978.59
2018-11-11T21:09:15.231Z,978.67
2018-11-11T21:10:15.159Z,978.67
2018-11-11T21:11:15.124Z,978.65
2018-11-11T21:12:15.086Z,978.63
2018-11-11T21:13:15.049Z,978.62
2018-11-11T21:14:15.003Z,978.67
2018-11-11T21:15:14.992Z,978.71
2018-11-11T21:16:14.932Z,978.68
2018-11-11T21:17:14.924Z,978.65
2018-11-11T21:18:14.851Z,978.65
2018-11-11T21:19:14.820Z,978.69
2018-11-11T21:20:14.774Z,978.69
2018-11-11T21:21:14.764Z,978.69
2018-11-11T21:22:14.699Z,978.62
2018-11-11T21:23:14.662Z,978.69
2018-11-11T21:24:14.625Z,978.74
2018-11-11T21:25:14.614Z,978.80
2018-11-11T21:26:14.544Z,978.79
2018-11-11T21:27:14.504Z,978.77
2018-11-11T21:28:14.466Z,978.81
2018-11-11T21:29:14.431Z,978.77
2018-11-11T21:30:14.398Z,978.77
2018-11-11T21:31:14.359Z,978.83
2018-11-11T21:32:14.318Z,978.86
2018-11-11T21:33:14.278Z,978.81
2018-11-11T21:34:14.242Z,978.81
2018-11-11T21:35:14.203Z,978.85
2018-11-11T21:36:14.166Z,978.87
2018-11-11T21:37:14.125Z,978.95
2018-11-11T21:38:14.103Z,978.94
2018-11-11T21:39:15.991Z,978.91
2018-11-11T21:40:14.006Z,978.96
2018-11-11T21:41:13.970Z,978.95
2018-11-11T21:42:13.933Z,978.90
2018-11-11T21:43:13.897Z,978.82
2018-11-11T21:44:13.859Z,978.88
2018-11-11T21:45:13.819Z,978.87
2018-11-11T21:46:13.777Z,978.89
2018-11-11T21:47:13.737Z,978.86
2018-11-11T21:48:13.707Z,978.86
2018-11-11T21:49:13.665Z,978.85
2018-11-11T21:50:13.624Z,978.81
2018-11-11T21:51:13.584Z,978.77
2018-11-11T21:52:13.546Z,978.72
2018-11-11T21:53:13.551Z,978.80
2018-11-11T21:54:13.473Z,978.87
2018-11-11T21:55:13.437Z,978.89
2018-11-11T21:56:13.405Z,978.92
2018-11-11T21:57:13.358Z,978.94
2018-11-11T21:58:13.317Z,978.85
2018-11-11T21:59:13.278Z,978.85
2018-11-11T22:00:13.240Z,978.89
2018-11-11T22:01:13.203Z,978.90
2018-11-11T22:02:13.213Z,978.89
2018-11-11T22:03:13.131Z,978.94
2018-11-11T22:04:13.086Z,979.02
2018-11-11T22:05:13.051Z,979.05
2018-11-11T22:06:13.013Z,979.04
2018-11-11T22:07:12.980Z,979.10
2018-11-11T22:20:22.039Z,979.06
2018-11-11T22:21:21.569Z,979.04
2018-11-11T22:22:21.595Z,979.16
2018-11-11T22:23:21.487Z,979.08
2018-11-11T22:24:21.444Z,979.12
2018-11-11T22:25:21.403Z,979.19
2018-11-11T22:26:21.364Z,979.19
2018-11-11T22:27:21.317Z,979.22
2018-11-11T22:28:21.278Z,979.23
2018-11-11T22:29:21.239Z,979.27
2018-11-11T22:30:21.197Z,979.26
2018-11-11T22:31:21.171Z,979.28
2018-11-11T22:32:21.122Z,979.28
2018-11-11T22:33:21.131Z,979.33
2018-11-11T22:34:21.037Z,979.26
2018-11-11T22:35:21.006Z,979.22
2018-11-11T22:36:20.965Z,979.23
2018-11-11T22:37:20.925Z,979.25
2018-11-11T22:38:20.889Z,979.19
2018-11-11T22:39:20.842Z,979.19
2018-11-11T22:40:20.806Z,979.23
2018-11-11T22:41:20.765Z,979.31
2018-11-11T22:42:20.741Z,979.32
2018-11-11T22:43:20.690Z,979.28
2018-11-11T22:44:20.661Z,979.31
2018-11-11T22:45:20.615Z,979.28
2018-11-11T22:46:20.575Z,979.29
2018-11-11T22:47:20.533Z,979.25
2018-11-11T22:48:20.492Z,979.25
2018-11-11T22:49:20.461Z,979.18
2018-11-11T22:50:20.422Z,979.15
2018-11-11T22:51:20.379Z,979.20
2018-11-11T22:52:20.344Z,979.11
2018-11-11T22:53:20.300Z,979.11
2018-11-11T22:54:20.262Z,979.06
2018-11-11T22:55:20.228Z,979.06
2018-11-11T22:56:20.189Z,979.18
2018-11-11T22:57:20.152Z,979.19
2018-11-11T22:58:20.109Z,979.20
2018-11-11T22:59:20.069Z,979.24
2018-11-11T23:00:20.030Z,979.24
2018-11-11T23:01:20.035Z,979.24
2018-11-11T23:02:19.955Z,979.23
2018-11-11T23:03:19.918Z,979.26
2018-11-11T23:04:19.882Z,979.28
2018-11-11T23:05:19.846Z,979.27
2018-11-11T23:06:19.804Z,979.33
2018-11-11T23:07:19.764Z,979.35
2018-11-11T23:08:19.728Z,979.36
2018-11-11T23:09:19.691Z,979.37
2018-11-11T23:10:19.649Z,979.40
2018-11-11T23:11:19.610Z,979.43
2018-11-11T23:12:19.568Z,979.41
2018-11-11T23:13:19.531Z,979.32
2018-11-11T23:14:19.493Z,979.32
2018-11-11T23:15:19.457Z,979.34
2018-11-11T23:16:19.421Z,979.36
2018-11-11T23:17:19.387Z,979.38
2018-11-11T23:18:19.343Z,979.37
2018-11-11T23:19:19.305Z,979.46
2018-11-11T23:20:19.262Z,979.49
2018-11-11T23:21:19.230Z,979.56
2018-11-11T23:22:19.196Z,979.57
2018-11-11T23:23:19.149Z,979.52
2018-11-11T23:24:19.109Z,979.49
2018-11-11T23:25:19.070Z,979.49
2018-11-11T23:26:19.033Z,979.47
2018-11-11T23:27:18.999Z,979.50
2018-11-11T23:28:19.014Z,979.50
2018-11-11T23:29:18.927Z,979.48
2018-11-11T23:30:18.883Z,979.50
2018-11-11T23:31:18.843Z,979.58
2018-11-11T23:32:18.802Z,979.58
2018-11-11T23:33:18.765Z,979.62
2018-11-11T23:34:18.728Z,979.64
2018-11-11T23:35:18.692Z,979.61
2018-11-11T23:36:18.656Z,979.62
2018-11-11T23:37:18.619Z,979.64
2018-11-11T23:38:18.596Z,979.65
2018-11-11T23:39:18.539Z,979.59
2018-11-11T23:40:18.503Z,979.58
2018-11-11T23:41:18.469Z,979.60
2018-11-11T23:42:18.427Z,979.65
2018-11-11T23:43:18.384Z,979.68
2018-11-11T23:44:18.346Z,979.61
2018-11-11T23:45:18.312Z,979.65
2018-11-11T23:46:18.271Z,979.64
2018-11-11T23:47:18.236Z,979.65
2018-11-11T23:48:18.199Z,979.67
2018-11-11T23:49:18.161Z,979.68
2018-11-11T23:50:18.123Z,979.69
2018-11-11T23:51:18.081Z,979.70
2018-11-11T23:52:18.040Z,979.74
2018-11-11T23:53:18.009Z,979.74
2018-11-11T23:54:17.968Z,979.73
2018-11-11T23:55:17.929Z,979.73
2018-11-11T23:56:17.891Z,979.70
2018-11-11T23:57:17.850Z,979.68
2018-11-11T23:58:17.813Z,979.74
2018-11-11T23:59:17.777Z,979.79
